createdAt,value
2023-03-01T00:03:52.764Z,97912.75
2023-03-01T00:09:15.017Z,97916.91
2023-03-01T00:14:36.807Z,97918.31
2023-03-01T00:19:57.960Z,97919.81
2023-03-01T00:25:19.019Z,97916.75
2023-03-01T00:30:39.638Z,97909.31
2023-03-01T00:36:01.185Z,97909.53
2023-03-01T00:41:27.802Z,97906.63
2023-03-01T00:46:48.571Z,97911.03
2023-03-01T00:52:09.395Z,97901.66
2023-03-01T00:57:30.284Z,97888.69
2023-03-01T01:02:51.061Z,97886.69
2023-03-01T01:08:12.173Z,97883.03
2023-03-01T01:13:33.109Z,97887.50
2023-03-01T01:18:54.792Z,97880.50
2023-03-01T01:24:16.634Z,97870.97
2023-03-01T01:29:38.802Z,97864.25
2023-03-01T01:34:59.564Z,97868.44
2023-03-01T01:40:20.833Z,97851.38
2023-03-01T01:45:42.518Z,97850.03
2023-03-01T01:51:04.181Z,97841.16
2023-03-01T01:56:27.752Z,97837.53
2023-03-01T02:01:48.657Z,97844.28
2023-03-01T02:07:17.444Z,97835.44
2023-03-01T02:12:40.611Z,97843.69
2023-03-01T02:18:02.784Z,97840.91
2023-03-01T02:23:23.940Z,97833.69
2023-03-01T02:28:46.135Z,97828.34
2023-03-01T02:34:08.245Z,97839.63
2023-03-01T02:39:34.341Z,97836.94
2023-03-01T02:44:55.346Z,97841.34
2023-03-01T02:50:56.744Z,97832.91
2023-03-01T02:56:17.880Z,97824.84
2023-03-01T03:01:39.539Z,97827.72
2023-03-01T03:07:02.314Z,97817.91
2023-03-01T03:12:23.199Z,97816.59
2023-03-01T03:17:45.377Z,97820.09
2023-03-01T03:23:07.562Z,97807.19
2023-03-01T03:28:28.582Z,97807.44
2023-03-01T03:33:49.534Z,97804.94
2023-03-01T03:39:10.511Z,97811.31
2023-03-01T03:44:31.124Z,97809.78
2023-03-01T03:49:51.916Z,97803.06
2023-03-01T03:55:13.915Z,97806.22
2023-03-01T04:00:40.772Z,97803.63
2023-03-01T04:06:02.406Z,97799.84
2023-03-01T04:11:28.937Z,97800.41
2023-03-01T04:16:50.877Z,97796.25
2023-03-01T04:22:12.299Z,97803.72
2023-03-01T04:27:37.051Z,97801.50
2023-03-01T04:32:58.778Z,97800.56
2023-03-01T04:38:20.708Z,97805.31
2023-03-01T04:43:41.650Z,97784.81
2023-03-01T04:49:03.709Z,97798.44
2023-03-01T04:54:24.984Z,97804.00
2023-03-01T04:59:46.138Z,97802.41
2023-03-01T05:05:07.374Z,97807.75
2023-03-01T05:10:33.100Z,97811.19
2023-03-01T05:15:59.313Z,97800.56
2023-03-01T05:21:20.130Z,97794.81
2023-03-01T05:26:42.536Z,97808.81
2023-03-01T05:32:04.335Z,97801.28
2023-03-01T05:37:24.985Z,97797.28
2023-03-01T05:42:47.816Z,97806.25
2023-03-01T05:48:09.687Z,97806.25
2023-03-01T05:53:30.957Z,97783.91
2023-03-01T05:58:52.024Z,97773.81
2023-03-01T06:04:12.805Z,97778.84
2023-03-01T06:09:33.775Z,97787.84
2023-03-01T06:14:54.866Z,97788.97
2023-03-01T06:20:22.127Z,97774.91
2023-03-01T06:25:42.902Z,97781.91
2023-03-01T06:31:03.847Z,97782.00
2023-03-01T06:36:24.955Z,97765.81
2023-03-01T06:41:46.246Z,97780.19
2023-03-01T06:47:07.249Z,97779.91
2023-03-01T06:52:28.018Z,97778.41
2023-03-01T06:57:48.849Z,97774.78
2023-03-01T07:03:09.720Z,97787.59
2023-03-01T07:08:30.814Z,97774.56
2023-03-01T07:13:51.569Z,97779.31
2023-03-01T07:19:12.426Z,97790.50
2023-03-01T07:24:33.193Z,97782.31
2023-03-01T07:29:53.771Z,97783.91
2023-03-01T07:35:15.920Z,97790.13
2023-03-01T07:40:36.814Z,97792.50
2023-03-01T07:46:02.013Z,97788.97
2023-03-01T07:51:22.976Z,97792.00
2023-03-01T07:56:43.942Z,97789.63
2023-03-01T08:02:04.746Z,97796.53
2023-03-01T08:07:25.789Z,97788.91
2023-03-01T08:12:46.821Z,97773.41
2023-03-01T08:18:07.658Z,97777.84
2023-03-01T08:23:28.267Z,97782.38
2023-03-01T08:28:51.209Z,97787.13
2023-03-01T08:34:14.959Z,97790.97
2023-03-01T08:39:35.961Z,97796.75
2023-03-01T08:44:57.840Z,97787.50
2023-03-01T08:50:18.580Z,97775.81
2023-03-01T08:55:39.462Z,97784.47
2023-03-01T09:01:00.377Z,97766.19
2023-03-01T09:06:21.879Z,97762.91
2023-03-01T09:11:44.690Z,97753.97
2023-03-01T09:17:06.074Z,97748.03
2023-03-01T09:22:26.987Z,97740.56
2023-03-01T09:27:47.652Z,97741.25
2023-03-01T09:33:08.372Z,97729.28
2023-03-01T09:38:29.809Z,97732.03
2023-03-01T09:44:37.427Z,97725.22
2023-03-01T09:50:15.027Z,97729.16
2023-03-01T09:55:57.757Z,97725.84
2023-03-01T10:01:54.477Z,97711.53
2023-03-01T10:07:39.360Z,97714.50
2023-03-01T10:13:05.823Z,97713.63
2023-03-01T10:18:30.793Z,97710.50
2023-03-01T10:23:54.243Z,97702.75
2023-03-01T10:29:16.182Z,97693.00
2023-03-01T10:34:37.678Z,97691.88
2023-03-01T10:40:12.063Z,97687.41
2023-03-01T10:45:35.800Z,97675.94
2023-03-01T10:50:59.782Z,97678.06
2023-03-01T10:56:21.021Z,97671.22
2023-03-01T11:01:42.103Z,97657.63
2023-03-01T11:07:03.746Z,97646.09
2023-03-01T11:12:25.540Z,97642.69
2023-03-01T11:17:54.530Z,97631.16
2023-03-01T11:23:19.666Z,97625.81
2023-03-01T11:28:43.781Z,97618.41
2023-03-01T11:34:14.995Z,97620.75
2023-03-01T11:39:43.474Z,97612.16
2023-03-01T11:45:10.864Z,97603.97
2023-03-01T11:50:44.943Z,97603.06
2023-03-01T11:56:24.292Z,97595.91
2023-03-01T12:02:14.251Z,97596.41
2023-03-01T12:08:05.015Z,97595.19
2023-03-01T12:13:47.710Z,97590.84
2023-03-01T12:19:28.604Z,97578.13
2023-03-01T12:25:04.833Z,97568.16
2023-03-01T12:30:56.825Z,97553.22
2023-03-01T12:36:42.120Z,97553.06
2023-03-01T12:42:17.115Z,97551.38
2023-03-01T12:47:54.869Z,97546.72
2023-03-01T12:53:25.099Z,97531.56
2023-03-01T12:59:12.495Z,97530.00
2023-03-01T13:05:15.457Z,97529.59
2023-03-01T13:10:59.679Z,97519.81
2023-03-01T13:16:40.137Z,97527.66
2023-03-01T13:22:01.388Z,97527.66
2023-03-01T13:27:30.324Z,97522.22
2023-03-01T13:32:51.207Z,97515.31
2023-03-01T13:38:45.648Z,97519.53
2023-03-01T13:44:39.968Z,97524.66
2023-03-01T13:50:03.759Z,97524.16
2023-03-01T13:55:39.694Z,97523.06
2023-03-01T14:01:21.318Z,97520.13
2023-03-01T14:06:42.506Z,97519.13
2023-03-01T14:12:28.487Z,97515.97
2023-03-01T14:17:58.533Z,97508.06
2023-03-01T14:23:23.107Z,97501.97
2023-03-01T14:28:44.004Z,97511.91
2023-03-01T14:34:05.932Z,97509.31
2023-03-01T14:39:27.460Z,97507.16
2023-03-01T14:44:51.893Z,97505.38
2023-03-01T14:50:29.778Z,97503.38
2023-03-01T14:55:54.465Z,97517.47
2023-03-01T15:01:18.274Z,97522.81
2023-03-01T15:06:39.624Z,97518.00
2023-03-01T15:12:00.325Z,97515.56
2023-03-01T15:17:39.837Z,97514.00
2023-03-01T15:23:02.121Z,97514.97
2023-03-01T15:28:33.219Z,97517.72
2023-03-01T15:34:22.098Z,97516.09
2023-03-01T15:39:51.790Z,97511.59
2023-03-01T15:45:17.023Z,97502.16
2023-03-01T15:50:41.090Z,97500.66
2023-03-01T15:56:01.924Z,97506.06
2023-03-01T16:01:22.689Z,97508.22
2023-03-01T16:06:43.665Z,97503.31
2023-03-01T16:12:04.653Z,97496.81
2023-03-01T16:17:26.897Z,97514.38
2023-03-01T16:22:47.986Z,97521.63
2023-03-01T16:28:12.085Z,97519.25
2023-03-01T16:33:35.013Z,97513.69
2023-03-01T16:38:59.666Z,97513.03
2023-03-01T16:44:20.719Z,97507.69
2023-03-01T16:49:41.466Z,97506.72
2023-03-01T16:55:04.881Z,97507.78
2023-03-01T17:00:25.672Z,97501.88
2023-03-01T17:05:47.063Z,97498.16
2023-03-01T17:11:17.286Z,97511.63
2023-03-01T17:16:38.321Z,97504.13
2023-03-01T17:21:58.917Z,97501.94
2023-03-01T17:27:20.044Z,97501.97
2023-03-01T17:32:41.759Z,97500.31
2023-03-01T17:38:03.051Z,97512.09
2023-03-01T17:43:24.324Z,97508.16
2023-03-01T17:48:45.076Z,97504.13
2023-03-01T17:54:06.180Z,97504.03
2023-03-01T17:59:32.952Z,97506.63
2023-03-01T18:04:58.041Z,97510.28
2023-03-01T18:10:20.158Z,97512.47
2023-03-01T18:15:40.958Z,97507.22
2023-03-01T18:21:02.553Z,97511.34
2023-03-01T18:26:25.147Z,97502.16
2023-03-01T18:31:46.608Z,97491.38
2023-03-01T18:37:10.089Z,97496.31
2023-03-01T18:42:31.463Z,97495.34
2023-03-01T18:47:52.322Z,97494.44
2023-03-01T18:53:13.083Z,97506.78
2023-03-01T18:58:34.027Z,97506.84
2023-03-01T19:03:56.592Z,97514.06
2023-03-01T19:09:18.194Z,97512.38
2023-03-01T19:14:39.170Z,97511.19
2023-03-01T19:20:00.101Z,97522.25
2023-03-01T19:25:21.268Z,97526.84
2023-03-01T19:30:42.019Z,97523.53
2023-03-01T19:36:03.770Z,97519.56
2023-03-01T19:41:24.602Z,97515.47
2023-03-01T19:46:45.698Z,97524.53
2023-03-01T19:52:06.451Z,97515.00
2023-03-01T19:57:27.027Z,97503.72
2023-03-01T20:02:49.208Z,97494.44
2023-03-01T20:08:09.772Z,97509.53
2023-03-01T20:13:30.662Z,97501.00
2023-03-01T20:18:51.540Z,97509.03
2023-03-01T20:24:12.615Z,97510.09
2023-03-01T20:29:33.219Z,97512.44
2023-03-01T20:34:56.866Z,97514.41
2023-03-01T20:40:19.496Z,97511.19
2023-03-01T20:45:40.175Z,97526.72
2023-03-01T20:51:05.305Z,97519.84
2023-03-01T20:56:27.474Z,97515.97
2023-03-01T21:01:57.814Z,97522.75
2023-03-01T21:07:18.611Z,97524.91
2023-03-01T21:12:39.330Z,97525.97
2023-03-01T21:18:00.409Z,97526.56
2023-03-01T21:23:21.301Z,97521.84
2023-03-01T21:28:43.255Z,97512.28
2023-03-01T21:34:06.648Z,97515.94
2023-03-01T21:39:29.038Z,97505.44
2023-03-01T21:44:50.068Z,97500.72
2023-03-01T21:50:11.642Z,97489.31
2023-03-01T21:55:34.199Z,97487.94
2023-03-01T22:01:06.700Z,97479.72
2023-03-01T22:06:34.284Z,97470.22
2023-03-01T22:12:02.604Z,97470.28
2023-03-01T22:17:23.835Z,97471.66
2023-03-01T22:22:44.510Z,97482.31
2023-03-01T22:28:05.188Z,97481.28
2023-03-01T22:33:26.020Z,97467.97
2023-03-01T22:38:47.103Z,97473.16
2023-03-01T22:44:08.150Z,97456.59
2023-03-01T22:49:28.742Z,97459.56
2023-03-01T22:54:49.604Z,97464.03
2023-03-01T23:00:13.352Z,97459.97
2023-03-01T23:05:34.314Z,97457.00
2023-03-01T23:10:55.280Z,97450.19
2023-03-01T23:16:17.220Z,97455.88
2023-03-01T23:21:38.106Z,97446.88
2023-03-01T23:27:03.003Z,97444.78
2023-03-01T23:32:24.160Z,97458.72
2023-03-01T23:37:45.634Z,97465.03
2023-03-01T23:43:06.503Z,97455.44
2023-03-01T23:48:27.138Z,97451.28
2023-03-01T23:53:57.611Z,97455.56
2023-03-01T23:59:21.926Z,97457.41
